createdAt,value
2023-02-24T00:02:04.248Z,5.07
2023-02-24T00:04:40.927Z,4.85
2023-02-24T00:07:10.421Z,4.78
2023-02-24T00:09:38.183Z,4.57
2023-02-24T00:12:09.019Z,4.70
2023-02-24T00:14:38.105Z,3.97
2023-02-24T00:17:08.098Z,4.28
2023-02-24T00:19:35.882Z,4.07
2023-02-24T00:22:04.342Z,3.22
2023-02-24T00:24:31.662Z,3.50
2023-02-24T00:27:01.164Z,3.75
2023-02-24T00:29:30.003Z,4.13
2023-02-24T00:32:03.231Z,3.63
2023-02-24T00:34:33.811Z,4.00
2023-02-24T00:37:06.992Z,4.20
2023-02-24T00:39:35.070Z,4.95
2023-02-24T00:42:06.353Z,3.63
2023-02-24T00:44:36.060Z,4.68
2023-02-24T00:47:04.978Z,4.55
2023-02-24T00:49:32.324Z,4.18
2023-02-24T00:52:00.071Z,4.53
2023-02-24T00:54:28.300Z,3.38
2023-02-24T00:56:56.387Z,3.80
2023-02-24T00:59:26.554Z,4.13
2023-02-24T05:02:04.760Z,5.30
2023-02-24T05:04:38.773Z,3.15
2023-02-24T05:07:05.858Z,4.43
2023-02-24T05:09:32.661Z,3.95
2023-02-24T05:12:00.357Z,5.03
2023-02-24T05:14:27.559Z,4.97
2023-02-24T05:17:00.084Z,5.10
2023-02-24T05:19:45.335Z,3.67
2023-02-24T05:22:14.446Z,4.15
2023-02-24T05:24:41.311Z,3.30
2023-02-24T05:27:08.587Z,4.57
2023-02-24T05:29:35.757Z,3.17
2023-02-24T05:32:04.362Z,3.67
2023-02-24T05:34:32.980Z,4.15
2023-02-24T05:37:01.928Z,4.10
2023-02-24T05:39:28.673Z,3.63
2023-02-24T05:41:57.014Z,3.40
2023-02-24T05:44:26.197Z,3.38
2023-02-24T05:46:58.847Z,3.50
2023-02-24T05:49:35.736Z,4.43
2023-02-24T05:52:09.118Z,4.25
2023-02-24T05:54:39.197Z,3.47
2023-02-24T05:57:09.520Z,3.38
2023-02-24T05:59:36.327Z,3.85
2023-02-24T06:02:07.425Z,3.60
2023-02-24T06:04:45.887Z,4.07
2023-02-24T06:07:22.194Z,3.25
2023-02-24T06:09:53.509Z,3.38
2023-02-24T06:12:22.543Z,2.85
2023-02-24T06:14:49.428Z,3.08
2023-02-24T06:17:18.413Z,2.63
2023-02-24T06:19:46.830Z,2.92
2023-02-24T06:22:15.757Z,4.28
2023-02-24T06:24:45.620Z,3.08
2023-02-24T06:27:19.885Z,3.00
2023-02-24T06:29:50.102Z,3.95
2023-02-24T06:32:23.741Z,4.55
2023-02-24T06:34:52.150Z,3.28
2023-02-24T06:37:19.207Z,2.85
2023-02-24T06:39:46.154Z,4.00
2023-02-24T06:42:13.476Z,2.92
2023-02-24T06:44:41.425Z,2.95
2023-02-24T06:47:11.352Z,4.15
2023-02-24T06:49:38.037Z,3.17
2023-02-24T06:52:05.949Z,3.33
2023-02-24T06:54:35.955Z,2.60
2023-02-24T06:57:04.604Z,3.50
2023-02-24T06:59:32.164Z,2.80
2023-02-24T07:02:04.264Z,3.17
2023-02-24T07:04:36.234Z,2.63
2023-02-24T07:07:03.509Z,3.05
2023-02-24T07:09:32.044Z,3.33
2023-02-24T07:12:02.451Z,2.72
2023-02-24T07:14:31.281Z,3.05
2023-02-24T07:16:59.430Z,2.15
2023-02-24T07:19:29.213Z,2.80
2023-02-24T07:22:02.144Z,2.58
2023-02-24T07:24:39.282Z,3.83
2023-02-24T07:27:10.649Z,3.72
2023-02-24T07:29:38.202Z,2.13
2023-02-24T07:32:08.763Z,2.90
2023-02-24T07:34:39.799Z,3.42
2023-02-24T07:37:08.085Z,2.85
2023-02-24T07:39:36.981Z,3.08
2023-02-24T07:42:04.834Z,2.25
2023-02-24T07:44:33.066Z,2.08
2023-02-24T07:47:00.299Z,2.40
2023-02-24T07:49:30.085Z,3.38
2023-02-24T07:51:58.096Z,1.92
2023-02-24T07:54:30.301Z,3.05
2023-02-24T07:56:59.137Z,2.80
2023-02-24T07:59:26.125Z,2.35
2023-02-24T08:01:55.693Z,3.17
2023-02-24T08:04:28.548Z,2.55
2023-02-24T08:06:56.228Z,2.67
2023-02-24T08:09:47.025Z,3.45
2023-02-24T08:12:21.215Z,3.28
2023-02-24T08:14:57.593Z,2.67
2023-02-24T08:17:29.245Z,3.42
2023-02-24T08:20:15.014Z,4.17
2023-02-24T08:22:57.077Z,2.33
2023-02-24T08:25:36.329Z,2.85
2023-02-24T08:28:09.210Z,3.33
2023-02-24T08:30:45.258Z,2.97
2023-02-24T08:33:18.440Z,2.45
2023-02-24T08:35:45.293Z,3.03
2023-02-24T08:38:18.113Z,3.13
2023-02-24T08:41:00.470Z,2.40
2023-02-24T08:43:37.217Z,2.72
2023-02-24T08:46:13.375Z,3.55
2023-02-24T08:48:46.422Z,2.15
2023-02-24T08:51:17.992Z,2.55
2023-02-24T08:53:46.829Z,2.67
2023-02-24T08:56:24.114Z,2.38
2023-02-24T08:59:05.250Z,2.65
2023-02-24T09:01:38.584Z,2.45
2023-02-24T09:04:44.990Z,2.83
2023-02-24T09:07:28.293Z,3.05
2023-02-24T09:09:58.771Z,2.75
2023-02-24T09:12:28.990Z,2.40
2023-02-24T09:15:06.919Z,2.70
2023-02-24T09:17:40.301Z,3.17
2023-02-24T09:20:27.548Z,2.88
2023-02-24T09:23:07.538Z,2.63
2023-02-24T09:25:44.026Z,3.38
2023-02-24T09:28:19.181Z,2.90
2023-02-24T09:30:55.609Z,2.97
2023-02-24T09:33:29.794Z,3.00
2023-02-24T09:36:09.699Z,2.95
2023-02-24T09:39:07.501Z,3.20
2023-02-24T09:41:56.205Z,3.33
2023-02-24T09:44:38.968Z,3.30
2023-02-24T09:50:32.943Z,3.55
2023-02-24T09:53:19.642Z,2.38
2023-02-24T09:56:10.687Z,1.98
2023-02-24T09:58:47.983Z,3.13
2023-02-24T10:01:33.933Z,3.92
2023-02-24T10:04:22.849Z,3.00
2023-02-24T10:06:52.532Z,4.30
2023-02-24T10:09:35.418Z,3.17
2023-02-24T10:12:17.562Z,2.28
2023-02-24T10:15:17.001Z,4.13
2023-02-24T10:17:58.054Z,3.88
2023-02-24T10:20:50.352Z,4.25
2023-02-24T10:23:34.979Z,3.80
2023-02-24T10:26:30.449Z,3.53
2023-02-24T10:29:25.557Z,2.92
2023-02-24T10:32:23.997Z,3.10
2023-02-24T10:34:52.643Z,2.88
2023-02-24T10:37:28.247Z,2.85
2023-02-24T10:40:09.459Z,2.80
2023-02-24T10:42:44.451Z,3.63
2023-02-24T10:45:18.576Z,4.20
2023-02-24T10:47:57.651Z,2.70
2023-02-24T10:50:55.108Z,3.10
2023-02-24T10:53:34.725Z,3.03
2023-02-24T10:56:27.012Z,3.35
2023-02-24T10:59:25.542Z,2.47
2023-02-24T11:01:58.970Z,3.60
2023-02-24T11:04:51.209Z,2.80
2023-02-24T11:07:36.496Z,2.78
2023-02-24T11:10:13.950Z,2.63
2023-02-24T11:13:10.278Z,3.65
2023-02-24T11:16:07.313Z,3.08
2023-02-24T11:18:34.749Z,2.97
2023-02-24T11:21:04.654Z,3.00
2023-02-24T11:23:38.128Z,3.67
2023-02-24T11:26:43.713Z,2.25
2023-02-24T11:30:06.500Z,3.40
2023-02-24T11:33:01.338Z,2.78
2023-02-24T11:35:43.564Z,3.90
2023-02-24T11:39:16.509Z,3.00
2023-02-24T11:41:50.960Z,3.28
2023-02-24T11:44:25.820Z,3.63
2023-02-24T11:46:57.626Z,3.80
2023-02-24T11:49:27.553Z,4.20
2023-02-24T11:51:55.856Z,4.28
2023-02-24T11:54:23.820Z,3.60
2023-02-24T11:56:55.661Z,3.65
2023-02-24T11:59:36.501Z,2.78
2023-02-24T12:02:21.623Z,2.47
2023-02-24T12:05:09.580Z,3.33
2023-02-24T12:07:58.714Z,3.80
2023-02-24T12:10:47.724Z,3.15
2023-02-24T12:13:39.996Z,2.80
2023-02-24T12:16:33.319Z,3.15
2023-02-24T12:19:11.859Z,4.30
2023-02-24T12:21:43.643Z,3.13
2023-02-24T12:24:14.700Z,2.45
2023-02-24T12:27:15.356Z,3.13
2023-02-24T12:29:54.592Z,3.42
2023-02-24T12:32:36.462Z,3.47
2023-02-24T12:35:36.207Z,2.23
2023-02-24T12:38:15.799Z,2.88
2023-02-24T12:41:15.057Z,4.18
2023-02-24T12:43:53.977Z,4.10
2023-02-24T12:46:35.296Z,2.42
2023-02-24T12:49:40.324Z,2.47
2023-02-24T12:52:37.400Z,2.35
2023-02-24T12:55:29.057Z,2.45
2023-02-24T12:58:02.614Z,2.72
2023-02-24T13:00:35.621Z,2.30
2023-02-24T13:03:29.717Z,3.00
2023-02-24T13:06:25.295Z,2.95
2023-02-24T13:09:07.018Z,2.45
2023-02-24T13:12:03.389Z,2.03
2023-02-24T13:14:32.104Z,2.03
2023-02-24T13:17:10.443Z,2.85
2023-02-24T13:19:40.012Z,2.80
2023-02-24T13:22:12.915Z,2.17
2023-02-24T13:24:59.969Z,1.83
2023-02-24T13:27:26.697Z,3.78
2023-02-24T13:30:00.938Z,2.75
2023-02-24T13:32:37.231Z,2.55
2023-02-24T13:35:25.644Z,2.28
2023-02-24T13:37:53.637Z,2.72
2023-02-24T13:40:27.171Z,2.15
2023-02-24T13:42:58.996Z,4.43
2023-02-24T13:45:33.379Z,3.60
2023-02-24T13:48:33.966Z,2.38
2023-02-24T13:51:39.815Z,1.75
2023-02-24T13:54:21.306Z,2.45
2023-02-24T13:56:56.989Z,1.38
2023-02-24T13:59:26.688Z,1.58
2023-02-24T14:02:15.425Z,1.27
2023-02-24T14:05:01.312Z,3.13
2023-02-24T14:07:32.120Z,1.23
2023-02-24T14:10:05.398Z,1.88
2023-02-24T14:12:35.533Z,2.30
2023-02-24T14:15:04.132Z,2.00
2023-02-24T14:17:36.240Z,3.35
2023-02-24T14:20:09.098Z,2.75
2023-02-24T14:22:47.122Z,1.60
2023-02-24T14:25:15.725Z,1.45
2023-02-24T14:27:51.550Z,1.80
2023-02-24T14:30:31.605Z,2.47
2023-02-24T14:32:59.123Z,2.75
2023-02-24T14:35:37.121Z,2.13
2023-02-24T14:38:04.928Z,1.67
2023-02-24T14:40:32.956Z,2.13
2023-02-24T14:43:00.238Z,2.42
2023-02-24T14:45:29.191Z,1.88
2023-02-24T14:47:56.885Z,1.40
2023-02-24T14:50:34.595Z,2.22
2023-02-24T14:53:09.941Z,1.40
2023-02-24T14:55:39.411Z,1.73
2023-02-24T14:58:16.249Z,1.95
2023-02-24T15:01:01.583Z,2.40
2023-02-24T15:03:36.478Z,2.28
2023-02-24T15:06:11.777Z,2.08
2023-02-24T15:08:46.106Z,1.65
2023-02-24T15:11:15.853Z,1.88
2023-02-24T15:13:47.809Z,1.60
2023-02-24T15:16:23.045Z,1.70
2023-02-24T15:18:55.284Z,2.65
2023-02-24T15:21:28.654Z,2.35
2023-02-24T15:24:04.756Z,2.90
2023-02-24T15:26:34.457Z,1.08
2023-02-24T15:29:12.724Z,1.60
2023-02-24T15:31:39.748Z,1.75
2023-02-24T15:34:16.742Z,1.67
2023-02-24T15:36:43.479Z,1.40
2023-02-24T15:39:23.041Z,2.65
2023-02-24T15:41:52.076Z,1.40
2023-02-24T15:44:31.569Z,1.58
2023-02-24T15:47:00.496Z,2.25
2023-02-24T15:49:27.329Z,2.55
2023-02-24T15:51:55.668Z,2.35
2023-02-24T15:54:31.894Z,2.40
2023-02-24T15:57:00.489Z,2.22
2023-02-24T15:59:28.400Z,2.47
2023-02-24T16:01:55.765Z,2.00
2023-02-24T16:04:23.786Z,1.50
2023-02-24T16:06:54.685Z,3.45
2023-02-24T16:09:36.572Z,1.50
2023-02-24T16:12:13.376Z,2.63
2023-02-24T16:14:41.089Z,3.40
2023-02-24T16:17:19.958Z,2.33
2023-02-24T16:19:46.639Z,1.58
2023-02-24T16:22:13.470Z,2.03
2023-02-24T16:24:40.192Z,2.53
2023-02-24T16:27:08.600Z,1.98
2023-02-24T16:29:35.315Z,1.63
2023-02-24T16:32:02.534Z,2.00
2023-02-24T16:34:29.542Z,1.30
2023-02-24T16:36:56.369Z,1.27
2023-02-24T16:39:23.781Z,2.67
2023-02-24T16:41:50.474Z,1.60
2023-02-24T16:44:17.208Z,2.17
2023-02-24T16:46:44.827Z,1.75
2023-02-24T16:49:17.471Z,0.98
2023-02-24T16:54:10.893Z,1.75
2023-02-24T16:56:38.050Z,1.88
2023-02-24T16:59:04.741Z,2.67
2023-02-24T17:01:31.846Z,1.52
2023-02-24T17:03:58.777Z,1.80
2023-02-24T17:06:26.041Z,1.48
2023-02-24T17:08:53.239Z,1.23
2023-02-24T17:11:23.610Z,1.38
2023-02-24T17:13:50.392Z,1.45
2023-02-24T17:16:17.116Z,1.40
2023-02-24T17:18:43.814Z,1.65
2023-02-24T17:21:14.386Z,1.50
2023-02-24T17:23:42.559Z,1.50
2023-02-24T17:26:13.695Z,1.38
2023-02-24T17:28:40.880Z,1.50
2023-02-24T17:31:07.815Z,1.52
2023-02-24T17:33:35.038Z,1.98
2023-02-24T17:36:01.882Z,2.40
2023-02-24T17:38:28.851Z,1.52
2023-02-24T17:40:57.543Z,2.13
2023-02-24T17:43:24.462Z,2.38
2023-02-24T17:45:52.987Z,2.13
2023-02-24T17:48:20.030Z,2.47
2023-02-24T17:50:48.039Z,3.08
2023-02-24T17:53:15.305Z,2.22
2023-02-24T17:56:01.090Z,2.85
2023-02-24T17:58:28.490Z,3.22
2023-02-24T18:00:55.230Z,3.03
2023-02-24T18:03:21.987Z,2.70
2023-02-24T18:05:48.776Z,1.20
2023-02-24T18:08:15.606Z,2.80
2023-02-24T18:10:42.376Z,2.17
2023-02-24T18:13:09.136Z,2.60
2023-02-24T18:15:38.799Z,1.85
2023-02-24T18:18:05.573Z,2.90
2023-02-24T18:20:32.281Z,3.58
2023-02-24T18:22:59.056Z,2.42
2023-02-24T18:25:25.818Z,1.98
2023-02-24T18:27:52.517Z,2.40
2023-02-24T18:30:19.482Z,2.85
2023-02-24T18:32:47.316Z,1.73
2023-02-24T18:35:15.856Z,2.08
2023-02-24T18:37:43.581Z,2.38
2023-02-24T18:40:11.093Z,1.67
2023-02-24T18:42:38.652Z,2.20
2023-02-24T18:45:06.545Z,1.65
2023-02-24T18:47:33.360Z,2.90
2023-02-24T18:50:00.028Z,1.63
2023-02-24T18:52:26.715Z,1.70
2023-02-24T18:54:53.500Z,2.63
2023-02-24T18:57:20.195Z,2.22
2023-02-24T18:59:50.687Z,1.35
2023-02-24T19:02:17.820Z,1.77
2023-02-24T19:04:45.902Z,2.78
2023-02-24T19:07:13.598Z,1.70
2023-02-24T19:09:41.814Z,1.30
2023-02-24T19:12:09.226Z,1.50
2023-02-24T19:14:37.222Z,1.98
2023-02-24T19:17:04.054Z,2.08
2023-02-24T19:19:30.896Z,1.08
2023-02-24T19:21:57.687Z,1.20
2023-02-24T19:24:24.445Z,1.15
2023-02-24T19:26:53.609Z,1.45
2023-02-24T19:29:21.291Z,1.23
2023-02-24T19:31:53.916Z,1.92
2023-02-24T19:34:20.966Z,1.48
2023-02-24T19:36:47.772Z,2.10
2023-02-24T19:39:16.178Z,2.15
2023-02-24T19:41:43.483Z,1.50
2023-02-24T19:44:10.953Z,2.08
2023-02-24T19:46:39.029Z,1.00
2023-02-24T19:49:06.409Z,1.77
2023-02-24T19:51:33.386Z,1.45
2023-02-24T19:54:05.844Z,1.77
2023-02-24T19:59:01.740Z,1.15
2023-02-24T20:01:29.869Z,3.35
2023-02-24T20:03:59.252Z,2.00
2023-02-24T20:06:31.256Z,1.67
2023-02-24T20:08:58.479Z,1.70
2023-02-24T20:11:28.676Z,4.88
2023-02-24T20:13:55.653Z,1.25
2023-02-24T20:16:27.256Z,1.17
2023-02-24T20:18:57.087Z,1.07
2023-02-24T20:21:24.153Z,1.73
2023-02-24T20:23:51.426Z,1.70
2023-02-24T20:26:18.790Z,1.13
2023-02-24T20:28:46.806Z,1.23
2023-02-24T20:31:18.527Z,2.60
2023-02-24T20:33:46.860Z,1.75
2023-02-24T20:36:23.394Z,0.93
2023-02-24T20:38:50.739Z,1.20
2023-02-24T20:41:18.770Z,1.63
2023-02-24T20:43:45.651Z,1.15
2023-02-24T20:46:14.984Z,1.20
2023-02-24T20:48:41.950Z,1.02
2023-02-24T20:51:09.286Z,2.83
2023-02-24T20:53:54.741Z,1.20
2023-02-24T20:56:24.363Z,1.15
2023-02-24T20:59:00.049Z,1.35
2023-02-24T21:01:27.966Z,1.48
2023-02-24T21:03:55.011Z,1.40
2023-02-24T21:06:22.894Z,1.00
2023-02-24T21:08:51.032Z,1.27
2023-02-24T21:11:17.858Z,1.13
2023-02-24T21:13:46.665Z,1.30
2023-02-24T21:16:15.540Z,1.33
2023-02-24T21:18:44.551Z,1.73
2023-02-24T21:21:12.494Z,1.20
2023-02-24T21:23:39.816Z,1.73
2023-02-24T21:26:07.725Z,1.85
2023-02-24T21:28:35.130Z,1.35
2023-02-24T21:31:10.426Z,1.35
2023-02-24T21:33:38.197Z,1.23
2023-02-24T21:36:07.301Z,1.05
2023-02-24T21:38:35.423Z,0.95
2023-02-24T21:41:03.561Z,1.98
2023-02-24T21:43:30.513Z,1.88
2023-02-24T21:46:02.127Z,1.25
2023-02-24T21:48:28.921Z,2.07
2023-02-24T21:51:04.098Z,1.58
2023-02-24T21:53:35.695Z,1.42
2023-02-24T21:56:23.434Z,1.00
2023-02-24T21:58:53.499Z,1.52
2023-02-24T22:01:32.565Z,1.13
2023-02-24T22:04:02.061Z,2.25
2023-02-24T22:06:31.757Z,0.80
2023-02-24T22:08:59.227Z,1.65
2023-02-24T22:11:26.157Z,1.50
2023-02-24T22:13:52.935Z,2.20
2023-02-24T22:16:25.187Z,1.67
2023-02-24T22:21:22.264Z,1.42
2023-02-24T22:23:51.697Z,1.35
2023-02-24T22:26:20.046Z,1.00
2023-02-24T22:28:49.312Z,1.60
2023-02-24T22:31:19.982Z,2.08
2023-02-24T22:33:47.046Z,1.45
2023-02-24T22:36:25.838Z,1.40
2023-02-24T22:38:54.209Z,1.77
2023-02-24T22:41:23.663Z,1.75
2023-02-24T22:43:50.753Z,1.45
2023-02-24T22:46:21.425Z,1.42
2023-02-24T22:48:50.318Z,1.30
2023-02-24T22:51:17.942Z,1.00
2023-02-24T22:53:47.298Z,1.80
2023-02-24T22:56:17.254Z,1.70
2023-02-24T22:58:45.337Z,1.45
2023-02-24T23:01:18.892Z,1.45
2023-02-24T23:03:47.108Z,1.40
2023-02-24T23:06:17.242Z,2.47
2023-02-24T23:08:46.303Z,1.60
2023-02-24T23:11:24.642Z,1.42
2023-02-24T23:13:51.954Z,1.65
2023-02-24T23:16:22.000Z,2.30
2023-02-24T23:18:50.713Z,0.95
2023-02-24T23:21:23.434Z,1.13
2023-02-24T23:26:18.048Z,1.40
2023-02-24T23:28:44.981Z,1.60
2023-02-24T23:31:18.183Z,1.30
2023-02-24T23:33:45.100Z,2.15
2023-02-24T23:36:11.764Z,1.20
2023-02-24T23:38:38.440Z,2.22
2023-02-24T23:41:09.839Z,1.73
2023-02-24T23:43:36.688Z,1.55
2023-02-24T23:46:05.643Z,2.13
2023-02-24T23:48:33.582Z,1.58
2023-02-24T23:51:03.956Z,1.38
2023-02-24T23:53:30.812Z,1.17
2023-02-24T23:55:57.951Z,1.20
2023-02-24T23:58:26.603Z,1.40
